createdAt,value
2023-03-14T00:04:06.587Z,984.9
2023-03-14T00:08:48.922Z,984.8
2023-03-14T00:13:55.381Z,984.8
2023-03-14T00:19:01.707Z,984.6
2023-03-14T00:24:08.091Z,984.6
2023-03-14T00:30:26.632Z,984.6
2023-03-14T00:34:20.838Z,984.4
2023-03-14T00:39:27.218Z,984.3
2023-03-14T00:45:17.695Z,984.4
2023-03-14T00:49:40.017Z,983.9
2023-03-14T00:54:46.421Z,983.8
2023-03-14T00:59:52.773Z,983.8
2023-03-14T01:05:19.254Z,983.8
2023-03-14T01:10:05.570Z,983.9
2023-03-14T01:15:12.095Z,984.1
2023-03-14T01:20:18.489Z,983.9
2023-03-14T01:30:31.830Z,983.9
2023-03-14T01:35:39.195Z,984.1
2023-03-14T01:40:45.564Z,984.2
2023-03-14T01:45:51.989Z,984.2
2023-03-14T01:50:58.317Z,984.4
2023-03-14T01:56:04.741Z,984.2
2023-03-14T02:01:11.216Z,984.0
2023-03-14T02:06:25.240Z,983.9
2023-03-14T02:11:27.662Z,984.0
2023-03-14T02:16:34.088Z,984.0
2023-03-14T02:21:40.518Z,984.0
2023-03-14T02:26:46.884Z,984.1
2023-03-14T02:31:53.336Z,984.0
2023-03-14T02:36:59.674Z,984.0
2023-03-14T02:42:06.051Z,984.0
2023-03-14T02:47:12.455Z,984.1
2023-03-14T02:52:18.844Z,984.0
2023-03-14T02:57:25.407Z,984.1
2023-03-14T03:02:31.854Z,984.1
2023-03-14T03:07:38.193Z,984.0
2023-03-14T03:13:08.639Z,984.0
2023-03-14T03:17:41.074Z,983.9
2023-03-14T03:23:17.373Z,983.9
2023-03-14T03:28:03.702Z,984.0
2023-03-14T03:33:34.134Z,984.0
2023-03-14T03:38:16.559Z,984.0
2023-03-14T03:43:22.942Z,983.9
2023-03-14T03:49:41.474Z,983.9
2023-03-14T03:53:35.701Z,983.9
2023-03-14T03:58:42.074Z,984.0
2023-03-14T04:03:48.509Z,984.1
2023-03-14T04:08:54.978Z,984.0
2023-03-14T04:14:21.297Z,983.9
2023-03-14T04:19:07.676Z,984.1
2023-03-14T04:24:14.124Z,984.0
2023-03-14T04:29:20.478Z,984.0
2023-03-14T04:34:26.892Z,984.1
2023-03-14T04:40:45.609Z,984.1
2023-03-14T04:44:39.932Z,983.8
2023-03-14T04:49:46.343Z,983.7
2023-03-14T04:54:52.762Z,983.7
2023-03-14T05:01:11.374Z,983.6
2023-03-14T05:05:05.566Z,983.7
2023-03-14T05:10:10.906Z,983.6
2023-03-14T05:15:38.415Z,983.6
2023-03-14T05:20:24.974Z,983.5
2023-03-14T05:25:32.729Z,983.5
2023-03-14T05:30:37.825Z,983.4
2023-03-14T05:35:44.288Z,983.3
2023-03-14T05:40:50.636Z,983.4
2023-03-14T05:46:17.223Z,983.2
2023-03-14T05:51:03.438Z,983.2
2023-03-14T05:56:09.864Z,983.5
2023-03-14T06:01:16.322Z,983.3
2023-03-14T06:06:22.983Z,983.4
2023-03-14T06:11:29.304Z,983.4
2023-03-14T06:16:35.736Z,983.3
2023-03-14T06:22:02.137Z,983.4
2023-03-14T06:26:48.443Z,983.4
2023-03-14T06:32:19.019Z,983.5
2023-03-14T06:37:25.279Z,983.5
2023-03-14T06:42:07.604Z,983.5
2023-03-14T06:47:14.086Z,983.4
2023-03-14T06:52:20.474Z,983.5
2023-03-14T06:57:26.901Z,983.5
2023-03-14T07:02:42.579Z,983.5
2023-03-14T07:07:39.619Z,983.6
2023-03-14T07:12:46.057Z,983.7
2023-03-14T07:17:52.381Z,983.6
2023-03-14T07:23:02.780Z,983.6
2023-03-14T07:28:05.174Z,983.7
2023-03-14T07:33:11.758Z,983.7
2023-03-14T07:38:19.108Z,983.8
2023-03-14T07:43:24.676Z,983.8
2023-03-14T07:48:31.127Z,983.8
2023-03-14T07:53:27.503Z,983.8
2023-03-14T07:58:42.923Z,983.8
2023-03-14T08:03:50.338Z,983.9
2023-03-14T08:08:56.640Z,983.7
2023-03-14T08:14:03.066Z,983.8
2023-03-14T08:19:09.400Z,983.9
2023-03-14T08:24:15.942Z,983.9
2023-03-14T08:29:22.578Z,983.9
2023-03-14T08:34:28.894Z,984.0
2023-03-14T08:39:35.287Z,984.0
2023-03-14T08:44:41.851Z,984.0
2023-03-14T08:49:48.192Z,984.1
2023-03-14T08:54:54.532Z,985.0
2023-03-14T09:00:01.061Z,985.2
2023-03-14T09:05:07.649Z,985.2
2023-03-14T09:10:15.570Z,985.5
2023-03-14T09:15:22.124Z,985.6
2023-03-14T09:20:28.354Z,985.8
2023-03-14T09:25:34.725Z,985.9
2023-03-14T09:30:41.144Z,986.2
2023-03-14T09:35:47.534Z,986.5
2023-03-14T09:40:54.999Z,986.7
2023-03-14T09:46:01.571Z,987.0
2023-03-14T09:51:07.839Z,987.5
2023-03-14T09:56:14.237Z,987.9
2023-03-14T10:01:20.644Z,988.2
2023-03-14T10:06:26.981Z,988.5
2023-03-14T10:11:33.386Z,988.6
2023-03-14T10:17:03.913Z,988.8
2023-03-14T10:21:46.257Z,989.0
2023-03-14T10:27:12.683Z,989.2
2023-03-14T10:31:59.024Z,989.7
2023-03-14T10:37:05.435Z,989.9
2023-03-14T10:42:11.795Z,990.1
2023-03-14T10:47:18.660Z,990.3
2023-03-14T10:52:46.004Z,990.3
2023-03-14T10:57:55.217Z,990.6
2023-03-14T11:02:37.647Z,990.7
2023-03-14T11:07:44.121Z,991.0
2023-03-14T11:12:50.436Z,991.2
2023-03-14T11:17:56.828Z,991.4
2023-03-14T11:23:03.229Z,991.5
2023-03-14T11:28:09.580Z,991.5
2023-03-14T11:33:36.460Z,991.6
2023-03-14T11:38:22.367Z,991.9
2023-03-14T11:43:29.310Z,992.2
2023-03-14T11:48:35.342Z,992.5
2023-03-14T11:53:41.764Z,992.5
2023-03-14T11:59:12.152Z,992.7
2023-03-14T12:03:54.536Z,992.8
2023-03-14T12:09:00.895Z,993.1
2023-03-14T12:14:51.332Z,993.2
2023-03-14T12:19:13.618Z,993.3
2023-03-14T12:24:20.232Z,993.5
2023-03-14T12:29:50.685Z,993.6
2023-03-14T12:34:33.016Z,993.5
2023-03-14T12:39:39.467Z,993.9
2023-03-14T12:45:09.808Z,993.7
2023-03-14T12:52:42.996Z,993.9
2023-03-14T12:54:58.563Z,994.1
2023-03-14T13:00:04.919Z,994.5
2023-03-14T13:05:12.387Z,994.4
2023-03-14T13:10:17.926Z,994.6
2023-03-14T13:15:44.320Z,994.9
2023-03-14T13:20:30.665Z,995.1
2023-03-14T13:26:49.213Z,995.6
2023-03-14T13:31:07.555Z,995.4
2023-03-14T13:36:09.851Z,995.5
2023-03-14T13:40:56.223Z,995.0
2023-03-14T13:46:02.731Z,995.4
2023-03-14T13:51:10.063Z,995.5
2023-03-14T13:56:16.430Z,995.5
2023-03-14T14:01:22.938Z,995.7
2023-03-14T14:06:29.229Z,996.4
2023-03-14T14:11:45.803Z,996.0
2023-03-14T14:16:42.195Z,996.2
2023-03-14T14:21:38.412Z,996.2
2023-03-14T14:26:54.888Z,996.6
2023-03-14T14:32:01.258Z,996.3
2023-03-14T14:37:28.151Z,996.5
2023-03-14T14:42:13.983Z,996.7
2023-03-14T14:47:20.385Z,996.9
2023-03-14T14:52:28.939Z,996.9
2023-03-14T14:57:33.340Z,997.4
2023-03-14T15:02:39.844Z,997.2
2023-03-14T15:07:46.309Z,997.5
2023-03-14T15:12:42.687Z,998.1
2023-03-14T15:18:19.145Z,999.5
2023-03-14T15:23:05.689Z,998.9
2023-03-14T15:28:11.851Z,997.9
2023-03-14T15:33:18.329Z,998.3
2023-03-14T15:38:24.893Z,998.1
2023-03-14T15:44:31.322Z,998.7
2023-03-14T15:48:57.637Z,999.4
2023-03-14T15:53:44.006Z,998.6
2023-03-14T15:58:50.348Z,998.7
2023-03-14T16:03:56.747Z,998.8
2023-03-14T16:09:03.123Z,999.0
2023-03-14T16:14:09.470Z,999.1
2023-03-14T16:19:15.842Z,999.2
2023-03-14T16:24:22.406Z,999.3
2023-03-14T16:29:28.872Z,999.5
2023-03-14T16:34:55.318Z,999.6
2023-03-14T16:44:48.060Z,999.8
2023-03-14T16:49:54.438Z,1000.0
2023-03-14T16:55:00.889Z,1000.1
2023-03-14T17:00:31.370Z,1000.3
2023-03-14T17:05:03.650Z,1000.4
2023-03-14T17:10:24.048Z,1000.7
2023-03-14T17:15:26.547Z,1000.8
2023-03-14T17:20:33.064Z,1000.9
2023-03-14T17:25:39.608Z,1001.1
2023-03-14T17:30:46.142Z,1001.2
2023-03-14T17:35:52.432Z,1001.3
2023-03-14T17:40:57.763Z,1001.4
2023-03-14T17:46:29.504Z,1001.5
2023-03-14T17:51:11.878Z,1001.7
2023-03-14T17:56:18.262Z,1001.8
2023-03-14T18:01:44.954Z,1002.0
2023-03-14T18:06:31.123Z,1002.0
2023-03-14T18:11:37.391Z,1002.1
2023-03-14T18:17:07.828Z,1002.2
2023-03-14T18:21:50.303Z,1002.2
2023-03-14T18:26:56.667Z,1002.3
2023-03-14T18:32:03.050Z,1002.4
2023-03-14T18:36:59.448Z,1002.5
2023-03-14T18:42:15.812Z,1002.5
2023-03-14T18:47:46.271Z,1002.7
2023-03-14T18:52:28.662Z,1002.8
2023-03-14T18:57:35.068Z,1002.9
2023-03-14T19:02:41.549Z,1003.0
2023-03-14T19:07:47.877Z,1003.1
2023-03-14T19:13:54.349Z,1003.3
2023-03-14T19:18:00.681Z,1003.3
2023-03-14T19:23:07.137Z,1003.3
2023-03-14T19:28:13.528Z,1003.4
2023-03-14T19:33:19.923Z,1003.5
2023-03-14T19:38:46.393Z,1003.6
2023-03-14T19:43:22.691Z,1003.7
2023-03-14T19:48:53.182Z,1003.7
2023-03-14T19:53:45.719Z,1003.7
2023-03-14T19:58:52.163Z,1003.8
2023-03-14T20:03:58.531Z,1003.9
2023-03-14T20:09:32.534Z,1003.9
2023-03-14T20:14:15.040Z,1004.0
2023-03-14T20:19:21.259Z,1004.1
2023-03-14T20:24:47.684Z,1004.1
2023-03-14T20:29:34.089Z,1004.2
2023-03-14T20:34:40.435Z,1004.2
2023-03-14T20:40:10.854Z,1004.3
2023-03-14T20:45:17.254Z,1004.3
2023-03-14T20:50:43.671Z,1004.4
2023-03-14T20:55:05.970Z,1004.4
2023-03-14T21:00:12.381Z,1004.5
2023-03-14T21:05:18.908Z,1004.5
2023-03-14T21:10:25.191Z,1004.4
2023-03-14T21:15:31.702Z,1004.4
2023-03-14T21:20:38.098Z,1004.4
2023-03-14T21:25:44.791Z,1004.4
2023-03-14T21:30:50.944Z,1004.5
2023-03-14T21:35:57.424Z,1004.5
2023-03-14T21:41:03.698Z,1004.7
2023-03-14T21:46:10.176Z,1004.7
2023-03-14T21:51:40.533Z,1004.5
2023-03-14T21:56:22.852Z,1004.6
2023-03-14T22:01:49.445Z,1004.7
2023-03-14T22:06:35.622Z,1004.8
2023-03-14T22:11:42.015Z,1004.8
2023-03-14T22:16:48.371Z,1004.8
2023-03-14T22:21:54.793Z,1004.8
2023-03-14T22:27:01.310Z,1004.8
2023-03-14T22:32:07.650Z,1004.9
2023-03-14T22:37:14.647Z,1004.9
2023-03-14T22:42:21.044Z,1004.8
2023-03-14T22:47:27.377Z,1004.9
2023-03-14T22:52:33.776Z,1005.0
2023-03-14T22:57:40.249Z,1005.1
2023-03-14T23:02:46.858Z,1005.0
2023-03-14T23:07:53.364Z,1005.1
2023-03-14T23:13:19.828Z,1005.2
2023-03-14T23:18:06.827Z,1005.1
2023-03-14T23:24:25.349Z,1005.2
2023-03-14T23:28:19.881Z,1005.1
2023-03-14T23:33:50.380Z,1005.2
2023-03-14T23:38:32.775Z,1005.4
2023-03-14T23:44:03.195Z,1005.7
2023-03-14T23:48:45.537Z,1005.7
2023-03-14T23:53:51.949Z,1005.7
2023-03-14T23:58:58.311Z,1005.8
